Time;durP1;ratioP1;P1;durP2;ratioP2;P2;SDS_P1;SDS_P2;PMS_P1;PMS_P2;Temp;Humidity;BMP_temperature;BMP_pressure;BME280_temperature;BME280_humidity;BME280_pressure;Samples;Min_cycle;Max_cycle;Signal;HPM_P1;HPM_P2
2023/08/27 00:01:52;;;;;;;13.43;7.03;;;;;;;-143.84;96.61;45087.16;5109901;27;20464;-60
2023/08/27 00:04:19;;;;;;;7.17;6.60;;;;;;;-143.84;96.64;45073.81;5110015;28;20441;-60
2023/08/27 00:06:46;;;;;;;9.90;7.27;;;;;;;-143.84;96.79;45050.97;5109924;28;20808;-60
2023/08/27 00:09:15;;;;;;;9.53;6.60;;;;;;;-143.84;96.67;45066.22;5110053;27;20466;-60
2023/08/27 00:11:42;;;;;;;8.93;7.27;;;;;;;-143.84;96.75;45071.91;5109697;28;20482;-60
2023/08/27 00:14:09;;;;;;;7.70;7.00;;;;;;;-143.84;96.91;45081.44;5109807;28;20990;-60
2023/08/27 00:16:37;;;;;;;9.43;6.03;;;;;;;-143.84;96.70;45070.00;5109654;28;20465;-60
2023/08/27 00:19:05;;;;;;;8.50;6.90;;;;;;;-143.84;96.78;45064.31;5109535;28;20438;-60
2023/08/27 00:21:33;;;;;;;7.60;6.47;;;;;;;-143.84;96.66;45075.72;5109534;27;20921;-60
2023/08/27 00:24:00;;;;;;;7.63;6.40;;;;;;;-143.84;96.74;45060.50;5109282;28;20577;-60
2023/08/27 00:26:28;;;;;;;7.83;5.97;;;;;;;-143.84;96.70;45056.69;5109508;28;20439;-60
2023/08/27 00:28:56;;;;;;;9.80;6.60;;;;;;;-143.84;96.67;45064.31;5109639;28;20435;-60
2023/08/27 00:31:23;;;;;;;10.23;6.37;;;;;;;-143.84;96.47;45077.63;5109095;28;20825;-60
2023/08/27 00:33:50;;;;;;;7.47;6.80;;;;;;;-143.84;96.39;45070.00;5109406;28;20435;-60
2023/08/27 00:36:18;;;;;;;13.57;6.80;;;;;;;-143.84;96.36;45077.63;5109167;28;20863;-60
2023/08/27 00:38:45;;;;;;;7.00;6.30;;;;;;;-143.84;96.02;45075.72;5109142;28;20483;-60
2023/08/27 00:41:13;;;;;;;7.47;6.60;;;;;;;-143.84;96.27;45049.06;5109222;28;20457;-60
2023/08/27 00:43:42;;;;;;;7.47;6.40;;;;;;;-143.84;96.13;45066.22;5109234;28;20805;-60
2023/08/27 00:46:09;;;;;;;7.57;6.57;;;;;;;-143.84;96.11;45075.72;5109127;28;20853;-60
2023/08/27 00:48:36;;;;;;;10.20;6.33;;;;;;;-143.84;96.28;45064.31;5109176;28;20461;-60
2023/08/27 00:51:05;;;;;;;10.03;6.70;;;;;;;-143.84;96.28;45098.56;5109047;28;20863;-60
2023/08/27 00:53:34;;;;;;;12.70;7.77;;;;;;;-143.84;96.27;45037.66;5108863;28;20471;-62
2023/08/27 00:56:02;;;;;;;7.20;6.50;;;;;;;-143.84;96.25;45077.63;5108989;28;20863;-62
2023/08/27 00:58:29;;;;;;;8.07;6.60;;;;;;;-143.84;96.35;45054.78;5109198;28;20431;-60
2023/08/27 01:00:58;;;;;;;11.60;6.70;;;;;;;-143.84;96.35;45062.41;5108929;28;20857;-60
2023/08/27 01:03:26;;;;;;;8.13;7.23;;;;;;;-143.84;96.37;45098.56;5109048;28;20916;-60
2023/08/27 01:05:53;;;;;;;7.53;6.73;;;;;;;-143.84;96.38;45045.25;5108811;28;20449;-60
2023/08/27 01:08:27;;;;;;;10.23;6.93;;;;;;;-143.84;96.60;45077.63;5109037;28;20450;-60
2023/08/27 01:11:03;;;;;;;12.33;6.50;;;;;;;-143.84;96.83;45079.53;5112391;28;20477;-60
2023/08/27 01:13:38;;;;;;;7.80;7.00;;;;;;;-143.84;96.63;45066.22;5113151;28;20434;-60
2023/08/27 01:16:08;;;;;;;9.30;6.70;;;;;;;-143.84;96.67;45092.88;5113361;28;20509;-60
2023/08/27 01:18:36;;;;;;;12.90;7.10;;;;;;;-143.84;96.76;45083.34;5113245;27;20812;-60
2023/08/27 01:21:19;;;;;;;9.07;6.73;;;;;;;-143.84;97.01;45079.53;5113203;28;20434;-60
2023/08/27 01:23:46;;;;;;;9.43;7.40;;;;;;;-143.84;96.79;45083.34;5113052;28;20519;-60
2023/08/27 01:26:18;;;;;;;7.33;6.50;;;;;;;-143.84;96.76;45083.34;5113215;28;20544;-60
2023/08/27 01:28:49;;;;;;;7.60;5.90;;;;;;;-143.84;96.73;45077.63;5112952;28;20438;-60
2023/08/27 01:31:21;;;;;;;7.50;6.80;;;;;;;-143.84;96.72;45102.38;5112825;28;20474;-60
2023/08/27 01:33:50;;;;;;;11.13;7.10;;;;;;;-143.84;96.80;45083.34;5113030;28;20445;-60
2023/08/27 01:36:20;;;;;;;7.13;6.30;;;;;;;-143.84;96.55;45077.63;5113273;28;20909;-59
2023/08/27 01:38:47;;;;;;;11.30;7.00;;;;;;;-143.84;96.33;45089.06;5112777;28;20965;-60
2023/08/27 01:41:14;;;;;;;9.33;7.10;;;;;;;-143.84;96.39;45050.97;5112765;28;20503;-60
2023/08/27 01:43:41;;;;;;;8.70;6.73;;;;;;;-143.84;96.30;45052.88;5112638;28;20503;-60
2023/08/27 01:46:08;;;;;;;10.40;7.53;;;;;;;-143.84;96.21;45045.25;5112751;28;20442;-60
2023/08/27 01:48:35;;;;;;;7.70;7.00;;;;;;;-143.84;96.38;45085.25;5112915;28;20442;-60
2023/08/27 01:51:03;;;;;;;7.40;6.47;;;;;;;-143.84;96.04;45077.63;5112634;28;20471;-60
2023/08/27 01:53:32;;;;;;;9.33;7.13;;;;;;;-143.84;95.94;45064.31;5112584;28;20435;-59
2023/08/27 01:55:59;;;;;;;6.27;5.60;;;;;;;-143.84;95.82;45056.69;5112478;28;20924;-60
2023/08/27 01:58:26;;;;;;;8.00;7.30;;;;;;;-143.84;95.82;45068.13;5112503;28;20427;-59
2023/08/27 02:00:53;;;;;;;13.53;6.73;;;;;;;-143.84;95.80;45073.81;5112604;28;20442;-60
2023/08/27 02:03:20;;;;;;;9.90;6.63;;;;;;;-143.84;95.72;45073.81;5112557;28;20845;-60
2023/08/27 02:05:48;;;;;;;8.30;6.67;;;;;;;-143.84;95.83;45102.38;5112389;28;20431;-60
2023/08/27 02:08:15;;;;;;;9.23;6.60;;;;;;;-143.84;95.70;45110.00;5112189;28;20431;-60
2023/08/27 02:10:44;;;;;;;15.20;7.30;;;;;;;-143.84;95.80;45075.72;5112251;27;20439;-60
2023/08/27 02:13:11;;;;;;;12.00;7.07;;;;;;;-143.84;95.89;45073.81;5111985;28;20447;-62
2023/08/27 02:15:38;;;;;;;9.70;7.37;;;;;;;-143.84;95.93;45070.00;5112023;27;20435;-59
2023/08/27 02:18:05;;;;;;;8.87;7.10;;;;;;;-143.84;96.02;45090.97;5111986;28;20954;-60
2023/08/27 02:20:32;;;;;;;11.30;7.80;;;;;;;-143.84;95.89;45081.44;5111379;28;20476;-60
2023/08/27 02:23:00;;;;;;;9.77;7.53;;;;;;;-143.84;95.96;45075.72;5111612;28;20500;-60
2023/08/27 02:25:27;;;;;;;7.50;6.90;;;;;;;-143.84;96.10;45081.44;5111235;28;20507;-60
2023/08/27 02:27:55;;;;;;;10.03;7.00;;;;;;;-143.84;96.00;45083.34;5111382;28;20427;-60
2023/08/27 02:30:22;;;;;;;8.37;7.53;;;;;;;-143.84;95.97;45087.16;5111784;28;20439;-60
2023/08/27 02:32:49;;;;;;;7.03;6.43;;;;;;;-143.84;96.04;45104.28;5111496;28;20507;-60
2023/08/27 02:35:17;;;;;;;8.63;6.77;;;;;;;-143.84;96.01;45085.25;5111511;28;20434;-60
2023/08/27 02:37:44;;;;;;;10.27;6.77;;;;;;;-143.84;95.70;45110.00;5111886;28;20426;-60
2023/08/27 02:40:13;;;;;;;11.27;6.53;;;;;;;-143.84;95.64;45104.28;5111474;28;20488;-60
2023/08/27 02:42:40;;;;;;;16.30;6.83;;;;;;;-143.84;95.67;45075.72;5111186;28;20455;-60
2023/08/27 02:45:10;;;;;;;8.73;7.93;;;;;;;-143.84;95.84;45085.25;5111382;28;20483;-59
2023/08/27 02:47:37;;;;;;;10.63;7.50;;;;;;;-143.84;96.13;45083.34;5111498;28;20439;-60
2023/08/27 02:50:05;;;;;;;14.70;7.40;;;;;;;-143.84;96.47;45085.25;5111300;28;20507;-60
2023/08/27 02:52:32;;;;;;;11.07;7.40;;;;;;;-143.84;96.47;45079.53;5111268;28;20516;-60
2023/08/27 02:54:59;;;;;;;9.07;7.17;;;;;;;-143.84;96.43;45085.25;5111439;28;20442;-60
2023/08/27 02:57:26;;;;;;;18.20;7.57;;;;;;;-143.84;96.46;45092.88;5111126;28;20492;-60
2023/08/27 02:59:53;;;;;;;11.50;7.43;;;;;;;-143.84;96.44;45100.47;5111239;28;20431;-60
2023/08/27 03:02:22;;;;;;;9.67;6.70;;;;;;;-143.84;96.30;45098.56;5110962;28;20921;-59
2023/08/27 03:04:49;;;;;;;8.33;7.20;;;;;;;-143.84;96.08;45075.72;5111108;28;20967;-60
2023/08/27 03:07:17;;;;;;;11.20;7.67;;;;;;;-143.84;96.23;45081.44;5111344;27;20431;-60
2023/08/27 03:09:44;;;;;;;12.13;8.10;;;;;;;-143.84;96.54;45090.97;5111059;28;20443;-60
2023/08/27 03:12:11;;;;;;;15.23;8.80;;;;;;;-143.84;96.81;45098.56;5110950;28;20984;-60
2023/08/27 03:14:38;;;;;;;12.43;7.83;;;;;;;-143.84;97.01;45106.19;5111016;28;20431;-60
2023/08/27 03:17:05;;;;;;;10.43;7.50;;;;;;;-143.84;97.29;45081.44;5110740;28;20435;-60
2023/08/27 03:19:33;;;;;;;8.70;8.00;;;;;;;-143.84;97.61;45098.56;5110673;28;20435;-60
2023/08/27 03:22:01;;;;;;;11.73;7.70;;;;;;;-143.84;97.61;45090.97;5110718;28;20451;-60
2023/08/27 03:24:28;;;;;;;12.10;8.47;;;;;;;-143.84;98.00;45068.13;5110608;28;20494;-60
2023/08/27 03:26:55;;;;;;;10.90;8.90;;;;;;;-143.84;97.93;45087.16;5110748;28;20431;-60
2023/08/27 03:29:22;;;;;;;9.10;7.90;;;;;;;-143.84;98.18;45087.16;5110874;28;20473;-60
2023/08/27 03:31:50;;;;;;;11.47;8.47;;;;;;;-143.84;98.50;45083.34;5109503;28;20471;-60
2023/08/27 03:34:17;;;;;;;10.00;8.50;;;;;;;-143.84;98.80;45100.47;5110270;28;20518;-60
2023/08/27 03:36:46;;;;;;;9.17;8.37;;;;;;;-143.84;98.97;45073.81;5110453;28;20987;-60
2023/08/27 03:39:13;;;;;;;13.20;8.33;;;;;;;-143.84;99.12;45096.66;5110465;28;20519;-60
2023/08/27 03:41:40;;;;;;;13.07;8.20;;;;;;;-143.84;99.12;45054.78;5110386;28;20435;-61
2023/08/27 03:44:07;;;;;;;17.47;8.33;;;;;;;-143.84;99.21;45079.53;5110518;28;20435;-62
2023/08/27 03:46:34;;;;;;;9.70;8.53;;;;;;;-143.84;99.54;45077.63;5110288;27;20434;-62
2023/08/27 03:49:02;;;;;;;11.40;8.03;;;;;;;-143.84;99.10;45077.63;5110297;27;20431;-62
2023/08/27 03:51:29;;;;;;;9.37;8.10;;;;;;;-143.84;98.95;45089.06;5109933;28;20442;-62
2023/08/27 03:53:59;;;;;;;10.70;8.83;;;;;;;-143.84;98.88;45096.66;5109990;28;20458;-62
2023/08/27 03:56:27;;;;;;;19.50;9.07;;;;;;;-143.84;98.82;45104.28;5110041;27;20533;-62
2023/08/27 03:58:54;;;;;;;16.77;8.30;;;;;;;-143.84;98.16;45104.28;5109950;28;20451;-62
2023/08/27 04:01:21;;;;;;;9.77;8.13;;;;;;;-143.84;98.18;45115.72;5110062;28;20476;-62
2023/08/27 04:03:48;;;;;;;16.03;8.00;;;;;;;-143.84;97.99;45068.13;5110035;28;20500;-62
2023/08/27 04:06:15;;;;;;;13.30;9.00;;;;;;;-143.84;97.99;45100.47;5109794;28;20478;-62
2023/08/27 04:08:42;;;;;;;10.20;7.97;;;;;;;-143.84;97.47;45092.88;5109734;28;20565;-62
2023/08/27 04:11:12;;;;;;;10.70;8.70;;;;;;;-143.84;97.37;45071.91;5109781;28;20488;-62
2023/08/27 04:13:39;;;;;;;9.33;7.80;;;;;;;-143.84;97.27;45096.66;5109776;28;20482;-62
2023/08/27 04:16:09;;;;;;;8.87;7.30;;;;;;;-143.84;96.68;45148.09;5109871;28;20438;-62
2023/08/27 04:18:37;;;;;;;7.97;7.20;;;;;;;-143.84;96.40;45102.38;5109941;28;20445;-63
2023/08/27 04:21:04;;;;;;;11.00;7.90;;;;;;;-143.84;96.13;45068.13;5109833;28;20439;-63
2023/08/27 04:23:33;;;;;;;12.27;8.20;;;;;;;-143.84;95.78;45090.97;5109409;28;20439;-62
2023/08/27 04:26:00;;;;;;;10.80;7.97;;;;;;;-143.84;94.90;45102.38;5109339;28;20458;-62
2023/08/27 04:28:28;;;;;;;10.73;7.20;;;;;;;-143.84;94.60;45096.66;5109584;28;20948;-62
2023/08/27 04:30:55;;;;;;;10.83;7.57;;;;;;;-143.84;94.00;45077.63;5109497;28;20825;-62
2023/08/27 04:33:24;;;;;;;7.40;6.40;;;;;;;-143.84;93.99;45079.53;5109487;28;20515;-62
2023/08/27 04:35:52;;;;;;;14.57;7.07;;;;;;;-143.84;93.67;45045.25;5109463;28;20431;-62
2023/08/27 04:38:20;;;;;;;6.70;6.20;;;;;;;-143.84;92.74;45083.34;5109071;28;20500;-62
2023/08/27 04:40:51;;;;;;;8.63;6.83;;;;;;;-143.84;92.13;45058.59;5109363;28;20884;-62
2023/08/27 04:43:18;;;;;;;7.17;5.93;;;;;;;-143.84;91.49;45081.44;5108992;28;21019;-63
2023/08/27 04:45:47;;;;;;;8.60;5.83;;;;;;;-143.84;90.67;45083.34;5109023;28;20472;-63
2023/08/27 04:48:15;;;;;;;8.50;5.60;;;;;;;-143.84;89.15;45077.63;5109093;28;20443;-63
2023/08/27 04:50:45;;;;;;;6.00;5.03;;;;;;;-143.84;88.16;45070.00;5108922;28;20437;-63
2023/08/27 04:53:12;;;;;;;7.17;5.20;;;;;;;-143.84;85.88;45058.59;5108968;28;20543;-62
2023/08/27 04:55:40;;;;;;;7.83;5.00;;;;;;;-143.84;83.46;45052.88;5108982;28;20513;-63
2023/08/27 04:58:08;;;;;;;6.30;5.10;;;;;;;-143.84;79.87;45039.53;5108896;28;20443;-62
2023/08/27 05:00:35;;;;;;;6.30;4.50;;;;;;;-143.84;77.56;45014.78;5108876;28;20435;-62
2023/08/27 05:03:04;;;;;;;8.87;4.70;;;;;;;-143.84;74.13;45054.78;5108772;28;20493;-62
2023/08/27 05:05:31;;;;;;;10.53;4.60;;;;;;;-143.84;71.66;45028.13;5108870;28;20442;-63
2023/08/27 05:07:58;;;;;;;9.20;4.30;;;;;;;-143.84;69.99;45020.50;5108802;28;20484;-60
2023/08/27 05:10:26;;;;;;;11.63;4.20;;;;;;;-143.84;66.42;45022.41;5109147;28;20582;-59
2023/08/27 05:12:53;;;;;;;7.20;5.17;;;;;;;-143.84;64.37;44999.56;5108606;28;20923;-60
2023/08/27 05:15:21;;;;;;;5.37;4.00;;;;;;;-143.84;62.29;45001.47;5108724;28;20968;-60
2023/08/27 05:17:48;;;;;;;12.67;3.90;;;;;;;-143.84;61.02;45009.09;5108711;28;20941;-62
2023/08/27 05:20:17;;;;;;;6.93;4.10;;;;;;;-143.84;58.76;44980.53;5108635;28;20773;-61
2023/08/27 05:22:44;;;;;;;8.67;4.53;;;;;;;-143.84;57.36;44982.41;5108717;28;20462;-62
2023/08/27 05:25:11;;;;;;;7.23;4.13;;;;;;;-143.84;54.80;44961.47;5108690;28;20478;-62
2023/08/27 05:27:44;;;;;;;5.10;3.77;;;;;;;-143.84;54.12;44944.34;5108796;28;20443;-62
2023/08/27 05:30:14;;;;;;;6.43;4.27;;;;;;;-143.84;52.24;44974.81;5108762;28;20504;-62
2023/08/27 05:32:41;;;;;;;11.87;4.20;;;;;;;-143.84;51.43;44951.97;5108537;28;20481;-62
2023/08/27 05:35:09;;;;;;;4.13;3.70;;;;;;;-143.84;49.87;44932.91;5108413;28;20488;-62
2023/08/27 05:37:38;;;;;;;9.13;3.90;;;;;;;-143.84;49.31;44978.63;5108551;28;20884;-62
2023/08/27 05:40:06;;;;;;;3.63;3.00;;;;;;;-143.84;48.09;44931.00;5108797;28;20972;-62
2023/08/27 05:42:33;;;;;;;8.50;3.97;;;;;;;-143.84;46.62;44915.78;5108640;28;20435;-62
2023/08/27 05:45:00;;;;;;;5.97;3.60;;;;;;;-143.84;45.95;44919.59;5108849;28;20534;-62
2023/08/27 05:47:27;;;;;;;6.30;3.80;;;;;;;-143.84;45.45;44942.44;5108821;28;20431;-62
2023/08/27 05:49:55;;;;;;;14.67;3.40;;;;;;;-143.84;45.61;44919.59;5108387;28;20534;-62
2023/08/27 05:52:22;;;;;;;5.27;2.77;;;;;;;-143.84;44.36;44919.59;5108633;28;20527;-62
2023/08/27 05:54:50;;;;;;;5.23;3.20;;;;;;;-143.84;44.55;44932.91;5108369;28;20454;-62
2023/08/27 05:57:18;;;;;;;8.50;3.33;;;;;;;-143.84;44.03;44929.09;5112333;28;20465;-62
2023/08/27 05:59:45;;;;;;;7.63;3.10;;;;;;;-143.84;43.40;44955.75;5112195;28;20599;-62
2023/08/27 06:02:13;;;;;;;6.97;3.30;;;;;;;-143.84;43.48;44908.16;5112231;28;20470;-62
2023/08/27 06:04:40;;;;;;;5.53;3.00;;;;;;;-143.84;43.59;44923.41;5111955;28;20439;-62
2023/08/27 06:07:09;;;;;;;3.77;2.50;;;;;;;-143.84;43.00;44908.16;5111951;28;20514;-62
2023/08/27 06:09:37;;;;;;;6.80;3.53;;;;;;;-143.84;42.68;44915.78;5112080;28;20441;-62
2023/08/27 06:12:06;;;;;;;6.03;3.70;;;;;;;-143.84;42.59;44921.50;5111824;28;20801;-61
2023/08/27 06:14:33;;;;;;;5.43;2.87;;;;;;;-143.84;43.33;44915.78;5111926;28;20500;-62
2023/08/27 06:17:00;;;;;;;12.00;3.40;;;;;;;-143.84;42.34;44913.88;5111971;28;20442;-62
2023/08/27 06:19:27;;;;;;;3.30;2.80;;;;;;;-143.84;41.96;44927.19;5111757;28;20802;-62
2023/08/27 06:21:54;;;;;;;4.40;3.73;;;;;;;-143.84;41.37;44906.25;5111731;28;20987;-62
2023/08/27 06:24:22;;;;;;;12.47;4.10;;;;;;;-143.84;40.86;44883.41;5111453;28;20519;-62
2023/08/27 06:26:49;;;;;;;6.23;3.30;;;;;;;-143.84;40.63;44881.50;5111624;28;20435;-61
2023/08/27 06:29:18;;;;;;;8.50;3.50;;;;;;;-143.84;41.00;44915.78;5111686;27;20446;-62
2023/08/27 06:31:45;;;;;;;5.10;3.30;;;;;;;-143.84;39.91;44917.69;5111734;28;20554;-62
2023/08/27 06:34:12;;;;;;;9.73;3.87;;;;;;;-143.84;40.68;44910.06;5111849;28;21378;-59
2023/08/27 06:36:40;;;;;;;9.33;3.80;;;;;;;-143.84;40.95;44870.09;5111989;28;20439;-60
2023/08/27 06:39:07;;;;;;;11.13;3.50;;;;;;;-143.84;40.50;44870.09;5111801;28;20536;-59
2023/08/27 06:41:34;;;;;;;5.47;3.43;;;;;;;-143.84;40.61;44881.50;5112019;28;20870;-59
2023/08/27 06:44:01;;;;;;;9.63;3.10;;;;;;;-143.84;39.98;44862.47;5111640;28;20452;-59
2023/08/27 06:46:30;;;;;;;3.63;2.80;;;;;;;-143.84;39.44;44866.28;5111757;28;20891;-59
2023/08/27 06:48:57;;;;;;;7.37;3.83;;;;;;;-143.84;39.00;44873.88;5111311;28;20442;-59
2023/08/27 06:51:24;;;;;;;4.93;3.07;;;;;;;-143.84;39.43;44862.47;5111421;28;20442;-63
2023/08/27 06:53:51;;;;;;;4.33;3.43;;;;;;;-143.84;39.09;44858.66;5111414;27;20474;-63
2023/08/27 06:56:18;;;;;;;5.27;2.90;;;;;;;-143.84;39.01;44862.47;5111408;28;21094;-63
2023/08/27 06:58:46;;;;;;;13.37;4.37;;;;;;;-143.84;39.04;44881.50;5111109;28;20451;-63
2023/08/27 07:01:14;;;;;;;5.70;3.50;;;;;;;-143.84;39.10;44866.28;5110240;28;20447;-63
2023/08/27 07:03:43;;;;;;;4.33;3.37;;;;;;;-143.84;38.35;44860.56;5110544;28;20443;-63
2023/08/27 07:06:10;;;;;;;4.50;3.17;;;;;;;-143.84;37.43;44835.81;5110518;27;20804;-63
2023/08/27 07:08:37;;;;;;;5.63;3.27;;;;;;;-143.84;37.66;44868.19;5110104;28;20439;-63
2023/08/27 07:11:04;;;;;;;5.37;3.30;;;;;;;-143.84;38.39;44866.28;5110694;28;20431;-63
2023/08/27 07:13:34;;;;;;;4.03;3.30;;;;;;;-143.84;37.64;44862.47;5110583;28;20883;-63
2023/08/27 07:16:02;;;;;;;6.07;3.43;;;;;;;-143.84;38.29;44839.63;5110642;28;20500;-63
2023/08/27 07:18:29;;;;;;;3.33;3.03;;;;;;;-143.84;37.70;44854.84;5110631;28;20478;-63
2023/08/27 07:20:58;;;;;;;4.87;3.20;;;;;;;-143.84;37.78;44866.28;5110643;28;20856;-63
2023/08/27 07:23:26;;;;;;;7.73;3.47;;;;;;;-143.84;37.85;44871.97;5110970;28;20447;-63
2023/08/27 07:25:53;;;;;;;3.80;3.13;;;;;;;-143.84;38.07;44887.22;5110363;28;20556;-63
2023/08/27 07:28:20;;;;;;;5.13;3.60;;;;;;;-143.84;38.10;44881.50;5110348;27;20431;-63
2023/08/27 07:30:50;;;;;;;5.13;3.20;;;;;;;-143.84;38.60;44877.69;5110468;28;20439;-63
2023/08/27 07:33:17;;;;;;;19.90;4.03;;;;;;;-143.84;38.83;44860.56;5110200;28;20474;-63
2023/08/27 07:35:44;;;;;;;4.00;3.47;;;;;;;-143.84;38.14;44862.47;5110521;28;20442;-63
2023/08/27 07:38:13;;;;;;;5.23;3.60;;;;;;;-143.84;38.48;44847.22;5110073;28;20435;-63
2023/08/27 07:40:40;;;;;;;4.30;2.83;;;;;;;-143.84;38.43;44892.94;5110358;28;20454;-63
2023/08/27 07:43:07;;;;;;;9.10;3.77;;;;;;;-143.84;38.79;44856.75;5110322;28;20467;-63
2023/08/27 07:45:35;;;;;;;8.00;4.00;;;;;;;-143.84;39.50;44866.28;5110034;28;20772;-63
2023/08/27 07:48:02;;;;;;;11.77;3.40;;;;;;;-143.84;40.01;44852.94;5110135;28;20436;-63
2023/08/27 07:50:29;;;;;;;11.07;3.70;;;;;;;-143.84;40.20;44885.31;5109932;28;20971;-63
2023/08/27 07:52:56;;;;;;;5.53;3.17;;;;;;;-143.84;40.23;44879.59;5109947;28;20484;-63
2023/08/27 07:55:25;;;;;;;9.57;3.53;;;;;;;-143.84;40.88;44889.13;5110171;28;20466;-63
2023/08/27 07:57:52;;;;;;;6.30;4.40;;;;;;;-143.84;41.51;44879.59;5110227;27;20480;-63
2023/08/27 08:00:20;;;;;;;7.77;4.10;;;;;;;-143.84;41.03;44870.09;5109983;28;20439;-63
2023/08/27 08:02:47;;;;;;;5.53;3.10;;;;;;;-143.84;40.95;44885.31;5110024;28;20441;-63
2023/08/27 08:05:15;;;;;;;5.23;3.50;;;;;;;-143.84;39.62;44879.59;5109935;28;20466;-63
2023/08/27 08:07:42;;;;;;;4.60;3.70;;;;;;;-143.84;40.53;44877.69;5109768;28;20438;-63
2023/08/27 08:10:09;;;;;;;5.63;3.57;;;;;;;-143.84;39.62;44879.59;5109827;28;20427;-63
2023/08/27 08:12:38;;;;;;;3.30;3.00;;;;;;;-143.84;39.45;44866.28;5109635;28;20443;-63
2023/08/27 08:15:06;;;;;;;12.23;3.70;;;;;;;-143.84;39.71;44891.03;5109558;28;20469;-63
2023/08/27 08:17:33;;;;;;;9.50;3.50;;;;;;;-143.84;39.49;44881.50;5109667;28;20431;-63
2023/08/27 08:20:00;;;;;;;5.70;3.07;;;;;;;-143.84;40.23;44854.84;5109063;28;20435;-63
2023/08/27 08:22:27;;;;;;;7.63;3.47;;;;;;;-143.84;39.77;44873.88;5109485;28;20446;-63
2023/08/27 08:24:55;;;;;;;5.87;3.43;;;;;;;-143.84;40.64;44892.94;5109140;28;20531;-63
2023/08/27 08:27:22;;;;;;;9.33;3.80;;;;;;;-143.84;41.65;44904.34;5109387;27;21010;-63
2023/08/27 08:29:51;;;;;;;5.67;3.60;;;;;;;-143.84;41.82;44906.25;5109685;28;20511;-63
2023/08/27 08:32:18;;;;;;;4.47;4.07;;;;;;;-143.84;42.38;44938.63;5109205;28;20443;-63
2023/08/27 08:34:46;;;;;;;7.03;3.50;;;;;;;-143.84;42.94;44879.59;5109265;28;20475;-63
2023/08/27 08:37:13;;;;;;;9.47;3.53;;;;;;;-143.84;42.70;44904.34;5109194;28;20435;-63
2023/08/27 08:39:40;;;;;;;10.60;3.30;;;;;;;-143.84;42.57;44889.13;5109252;28;20822;-63
2023/08/27 08:42:16;;;;;;;4.57;3.37;;;;;;;-143.84;42.54;44898.66;5109365;28;20512;-63
2023/08/27 08:44:51;;;;;;;6.77;4.20;;;;;;;-143.84;42.90;44894.84;5108894;28;20453;-63
2023/08/27 08:47:22;;;;;;;5.00;3.80;;;;;;;-143.84;42.63;44866.28;5109366;28;20453;-63
2023/08/27 08:49:54;;;;;;;9.10;3.90;;;;;;;-143.84;42.98;44892.94;5109086;28;20446;-63
2023/08/27 08:52:27;;;;;;;10.00;4.10;;;;;;;-143.84;43.70;44919.59;5109140;28;20431;-63
2023/08/27 08:54:56;;;;;;;5.13;3.80;;;;;;;-143.84;44.56;44898.66;5109455;28;20482;-62
2023/08/27 08:57:28;;;;;;;8.40;3.73;;;;;;;-143.84;44.12;44889.13;5109220;28;20914;-62
2023/08/27 08:59:56;;;;;;;13.30;4.13;;;;;;;-143.84;43.38;44925.31;5109130;28;20439;-62
2023/08/27 09:02:24;;;;;;;5.83;3.90;;;;;;;-143.84;43.45;44902.44;5108959;28;20496;-63
2023/08/27 09:04:53;;;;;;;10.90;5.00;;;;;;;-143.84;43.98;44908.16;5109071;28;20443;-63
2023/08/27 09:07:20;;;;;;;8.63;4.03;;;;;;;-143.84;44.02;44906.25;5108993;28;20427;-63
2023/08/27 09:09:49;;;;;;;4.37;3.97;;;;;;;-143.84;44.01;44896.75;5109136;28;20521;-62
2023/08/27 09:12:17;;;;;;;10.40;3.63;;;;;;;-143.84;44.37;44915.78;5109130;28;20435;-62
2023/08/27 09:14:45;;;;;;;18.70;9.40;;;;;;;-143.84;45.04;44873.88;5108788;28;20474;-62
2023/08/27 09:17:16;;;;;;;8.27;3.83;;;;;;;-143.84;43.17;44887.22;5108996;28;20435;-62
2023/08/27 09:19:46;;;;;;;5.93;3.90;;;;;;;-143.84;43.04;44877.69;5109011;28;20435;-62
2023/08/27 09:22:14;;;;;;;6.30;3.47;;;;;;;-143.84;43.44;44871.97;5109059;28;20447;-62
2023/08/27 09:24:41;;;;;;;9.67;3.60;;;;;;;-143.84;43.73;44906.25;5108604;28;20484;-62
2023/08/27 09:27:08;;;;;;;6.37;4.57;;;;;;;-143.84;44.20;44889.13;5108703;28;20454;-62
2023/08/27 09:29:36;;;;;;;5.63;3.63;;;;;;;-143.84;44.10;44904.34;5108704;28;20496;-62
2023/08/27 09:32:03;;;;;;;10.10;4.77;;;;;;;-143.84;43.58;44883.41;5112552;28;20427;-62
2023/08/27 09:34:30;;;;;;;10.83;4.37;;;;;;;-143.84;43.67;44892.94;5112679;28;20470;-62
2023/08/27 09:37:00;;;;;;;9.10;3.83;;;;;;;-143.84;43.74;44908.16;5113002;28;20431;-62
2023/08/27 09:39:27;;;;;;;10.40;4.93;;;;;;;-143.84;43.87;44904.34;5112661;28;20517;-62
2023/08/27 09:41:56;;;;;;;4.67;3.80;;;;;;;-143.84;44.05;44904.34;5112583;28;20805;-62
2023/08/27 09:44:26;;;;;;;14.33;4.87;;;;;;;-143.84;44.26;44892.94;5112456;28;20441;-62
2023/08/27 09:46:53;;;;;;;8.80;4.40;;;;;;;-143.84;43.90;44881.50;5112731;28;20434;-62
2023/08/27 09:49:24;;;;;;;8.43;4.20;;;;;;;-143.84;44.75;44870.09;5112483;28;20484;-62
2023/08/27 09:51:57;;;;;;;6.40;3.60;;;;;;;-143.84;42.99;44904.34;5112526;28;20441;-62
2023/08/27 09:54:31;;;;;;;15.37;3.93;;;;;;;-143.84;42.62;44906.25;5112510;28;20474;-62
2023/08/27 09:56:59;;;;;;;6.90;3.80;;;;;;;-143.84;42.99;44894.84;5112088;28;20457;-62
2023/08/27 09:59:28;;;;;;;11.43;4.27;;;;;;;-143.84;43.18;44913.88;5112511;28;20441;-62
2023/08/27 10:01:55;;;;;;;9.47;4.10;;;;;;;-143.84;43.83;44904.34;5112038;28;20478;-62
2023/08/27 10:04:23;;;;;;;5.23;3.70;;;;;;;-143.84;43.87;44911.97;5112218;28;20442;-62
2023/08/27 10:06:50;;;;;;;8.70;4.77;;;;;;;-143.84;44.79;44917.69;5112308;28;20439;-62
2023/08/27 10:09:17;;;;;;;8.10;3.63;;;;;;;-143.84;44.87;44904.34;5112145;28;20427;-62
2023/08/27 10:11:47;;;;;;;7.50;3.90;;;;;;;-143.84;44.65;44891.03;5111891;28;20453;-62
2023/08/27 10:14:16;;;;;;;5.10;3.27;;;;;;;-143.84;44.96;44927.19;5111995;28;20488;-62
2023/08/27 10:16:43;;;;;;;5.43;3.37;;;;;;;-143.84;45.01;44923.41;5111686;28;20974;-62
2023/08/27 10:19:11;;;;;;;6.37;3.40;;;;;;;-143.84;45.52;44927.19;5112005;28;20793;-62
2023/08/27 10:21:38;;;;;;;9.83;4.50;;;;;;;-143.84;46.12;44904.34;5111908;28;20784;-62
2023/08/27 10:24:07;;;;;;;7.90;4.00;;;;;;;-143.84;47.63;44894.84;5111628;28;20547;-62
2023/08/27 10:26:35;;;;;;;10.43;4.10;;;;;;;-143.84;46.41;44942.44;5111726;28;20937;-62
2023/08/27 10:29:04;;;;;;;6.37;3.50;;;;;;;-143.84;46.63;44934.81;5111806;28;20823;-62
2023/08/27 10:31:32;;;;;;;6.30;3.53;;;;;;;-143.84;45.06;44913.88;5111899;28;20460;-62
2023/08/27 10:33:59;;;;;;;8.30;3.97;;;;;;;-143.84;44.64;44923.41;5111669;28;20992;-62
2023/08/27 10:36:30;;;;;;;6.27;3.83;;;;;;;-143.84;45.30;44917.69;5111477;28;20434;-61
2023/08/27 10:38:58;;;;;;;6.20;3.67;;;;;;;-143.84;45.42;44923.41;5111556;28;20439;-62
2023/08/27 10:41:26;;;;;;;4.23;3.93;;;;;;;-143.84;45.44;44934.81;5111088;28;20435;-62
2023/08/27 10:43:53;;;;;;;9.77;3.37;;;;;;;-143.84;45.28;44904.34;5111468;28;20525;-61
2023/08/27 10:46:25;;;;;;;5.60;3.80;;;;;;;-143.84;45.70;44946.25;5111360;28;20442;-61
2023/08/27 10:48:53;;;;;;;4.87;3.10;;;;;;;-143.84;45.89;44936.72;5111325;28;20439;-61
2023/08/27 10:51:22;;;;;;;10.40;3.93;;;;;;;-143.84;46.24;44959.56;5111161;28;20430;-62
2023/08/27 10:54:00;;;;;;;5.90;3.63;;;;;;;-143.84;46.64;44927.19;5111015;28;20481;-61
2023/08/27 10:56:34;;;;;;;5.73;3.20;;;;;;;-143.84;44.34;44925.31;5111185;28;20435;-61
2023/08/27 10:59:03;;;;;;;5.70;2.90;;;;;;;-143.84;45.20;44931.00;5111499;28;20441;-61
2023/08/27 11:01:36;;;;;;;6.80;3.90;;;;;;;-143.84;45.07;44932.91;5111085;28;20446;-61
2023/08/27 11:04:05;;;;;;;5.13;3.53;;;;;;;-143.84;45.03;44940.53;5111687;28;21260;-61
2023/08/27 11:06:43;;;;;;;5.23;3.23;;;;;;;-143.84;45.90;44942.44;5110996;28;20937;-62
2023/08/27 11:09:20;;;;;;;14.43;3.30;;;;;;;-143.84;44.75;44955.75;5111046;27;20443;-61
2023/08/27 11:11:51;;;;;;;6.43;3.90;;;;;;;-143.84;45.19;44944.34;5111049;28;20442;-61
2023/08/27 11:14:20;;;;;;;11.03;3.17;;;;;;;-143.84;46.41;44957.66;5110796;28;20466;-61
2023/08/27 11:16:54;;;;;;;7.83;4.00;;;;;;;-143.84;47.01;44953.88;5111118;28;20530;-61
2023/08/27 11:19:29;;;;;;;6.30;3.20;;;;;;;-143.84;47.79;44948.16;5110969;28;20439;-62